Time;durP1;ratioP1;P1;durP2;ratioP2;P2;SDS_P1;SDS_P2;PMS_P1;PMS_P2;Temp;Humidity;BMP_temperature;BMP_pressure;BME280_temperature;BME280_humidity;BME280_pressure;Samples;Min_cycle;Max_cycle;Signal;HPM_P1;HPM_P2
2023/07/10 00:00:51;;;;;;;15.68;5.47;;;;;;;;;;5015246;28;93360;-74
2023/07/10 00:03:18;;;;;;;12.43;4.45;;;;;;;;;;5015125;28;93748;-74
2023/07/10 00:05:44;;;;;;;13.60;5.28;;;;;;;;;;5018111;28;92700;-74
2023/07/10 00:08:11;;;;;;;13.45;4.35;;;;;;;;;;5014889;28;93770;-74
2023/07/10 00:10:37;;;;;;;15.80;5.65;;;;;;;;;;5015149;28;92568;-74
2023/07/10 00:13:04;;;;;;;12.88;4.82;;;;;;;;;;5015443;28;92370;-74
2023/07/10 00:15:30;;;;;;;12.10;4.68;;;;;;;;;;5014809;28;93161;-73
2023/07/10 00:17:57;;;;;;;9.75;4.70;;;;;;;;;;5015375;28;92451;-73
2023/07/10 00:20:24;;;;;;;11.25;4.32;;;;;;;;;;5013398;28;94773;-75
2023/07/10 00:22:51;;;;;;;10.55;4.13;;;;;;;;;;5014554;28;94426;-74
2023/07/10 00:25:18;;;;;;;12.95;4.28;;;;;;;;;;5018102;28;92495;-74
2023/07/10 00:27:45;;;;;;;9.23;4.32;;;;;;;;;;5013005;28;94310;-73
2023/07/10 00:30:15;;;;;;;9.38;3.78;;;;;;;;;;5014711;28;92443;-74
2023/07/10 00:32:42;;;;;;;9.30;3.80;;;;;;;;;;5015010;28;93632;-75
2023/07/10 00:35:09;;;;;;;13.02;4.05;;;;;;;;;;5014533;28;93446;-73
2023/07/10 00:37:35;;;;;;;7.97;3.88;;;;;;;;;;5014834;28;91884;-75
2023/07/10 00:40:09;;;;;;;13.77;4.03;;;;;;;;;;5014884;28;92785;-73
2023/07/10 00:42:35;;;;;;;11.30;3.80;;;;;;;;;;5015180;28;93238;-75
2023/07/10 00:45:03;;;;;;;10.20;4.00;;;;;;;;;;5012981;28;94852;-75
2023/07/10 00:47:34;;;;;;;10.90;4.10;;;;;;;;;;5017476;28;96054;-73
2023/07/10 00:50:06;;;;;;;12.55;4.13;;;;;;;;;;5014642;28;92407;-74
2023/07/10 00:52:38;;;;;;;11.15;3.50;;;;;;;;;;5014533;28;93684;-75
2023/07/10 00:55:20;;;;;;;9.25;3.50;;;;;;;;;;5014167;28;93512;-73
2023/07/10 00:57:48;;;;;;;9.30;4.20;;;;;;;;;;5013815;28;92404;-73
2023/07/10 01:00:14;;;;;;;9.18;3.65;;;;;;;;;;5014803;28;93072;-75
2023/07/10 01:02:41;;;;;;;10.75;4.18;;;;;;;;;;5014706;28;92602;-75
2023/07/10 01:05:07;;;;;;;14.77;3.80;;;;;;;;;;5014601;28;92538;-75
2023/07/10 01:07:41;;;;;;;10.57;3.35;;;;;;;;;;5013259;28;93507;-75
2023/07/10 01:10:10;;;;;;;10.25;3.80;;;;;;;;;;5015462;28;95912;-75
2023/07/10 01:12:38;;;;;;;12.57;3.30;;;;;;;;;;5013981;28;95615;-75
2023/07/10 01:15:06;;;;;;;9.93;2.88;;;;;;;;;;5013555;28;93433;-75
2023/07/10 01:17:32;;;;;;;6.88;3.08;;;;;;;;;;5014600;28;92492;-75
2023/07/10 01:20:02;;;;;;;9.80;3.60;;;;;;;;;;5014254;28;93127;-75
2023/07/10 01:22:29;;;;;;;15.70;3.57;;;;;;;;;;5013721;28;93641;-75
2023/07/10 01:24:55;;;;;;;7.47;3.50;;;;;;;;;;5013977;28;92827;-75
2023/07/10 01:27:22;;;;;;;6.72;3.15;;;;;;;;;;5014011;28;93160;-75
2023/07/10 01:29:53;;;;;;;9.73;3.53;;;;;;;;;;5013963;28;93815;-75
2023/07/10 01:32:21;;;;;;;6.05;2.92;;;;;;;;;;5017091;28;92468;-75
2023/07/10 01:34:53;;;;;;;13.07;3.60;;;;;;;;;;5012432;28;95664;-75
2023/07/10 01:37:19;;;;;;;10.15;3.22;;;;;;;;;;5012423;28;92959;-75
2023/07/10 01:39:48;;;;;;;7.35;2.90;;;;;;;;;;5013810;28;93227;-75
2023/07/10 01:42:14;;;;;;;11.68;3.40;;;;;;;;;;5012534;28;93878;-74
2023/07/10 01:44:42;;;;;;;8.95;3.75;;;;;;;;;;5013811;28;92502;-74
2023/07/10 01:47:10;;;;;;;13.80;3.50;;;;;;;;;;5013725;28;93200;-74
2023/07/10 01:49:42;;;;;;;6.85;3.55;;;;;;;;;;5012626;28;93571;-74
2023/07/10 01:52:11;;;;;;;7.28;3.85;;;;;;;;;;5013906;28;92047;-74
2023/07/10 01:54:38;;;;;;;12.55;4.35;;;;;;;;;;5016450;28;92461;-74
2023/07/10 01:57:05;;;;;;;13.00;4.35;;;;;;;;;;5013417;28;92457;-74
2023/07/10 01:59:32;;;;;;;7.03;4.20;;;;;;;;;;5014619;28;94745;-74
2023/07/10 02:01:59;;;;;;;10.60;4.70;;;;;;;;;;5016969;28;93746;-74
2023/07/10 02:04:25;;;;;;;10.35;4.60;;;;;;;;;;5017181;28;92518;-74
2023/07/10 02:06:54;;;;;;;10.52;4.80;;;;;;;;;;5017248;28;93366;-74
2023/07/10 02:09:22;;;;;;;15.57;4.90;;;;;;;;;;5016732;28;93353;-74
2023/07/10 02:11:48;;;;;;;9.63;4.32;;;;;;;;;;5017014;28;92497;-74
2023/07/10 02:14:15;;;;;;;11.35;4.40;;;;;;;;;;5017080;28;93507;-74
2023/07/10 02:16:41;;;;;;;8.20;4.70;;;;;;;;;;5020419;28;91890;-74
2023/07/10 02:19:08;;;;;;;11.45;4.57;;;;;;;;;;5016925;28;92424;-74
2023/07/10 02:21:35;;;;;;;8.95;4.05;;;;;;;;;;5015227;28;93746;-74
2023/07/10 02:24:01;;;;;;;9.10;4.38;;;;;;;;;;5015166;28;94817;-74
2023/07/10 02:26:29;;;;;;;9.93;5.15;;;;;;;;;;5016224;28;95498;-74
2023/07/10 02:28:57;;;;;;;18.90;4.85;;;;;;;;;;5016645;28;93863;-74
2023/07/10 02:31:24;;;;;;;9.93;4.22;;;;;;;;;;5016853;28;92339;-74
2023/07/10 02:33:50;;;;;;;9.48;4.22;;;;;;;;;;5016634;28;93132;-74
2023/07/10 02:36:16;;;;;;;8.75;4.70;;;;;;;;;;5019394;28;93504;-74
2023/07/10 02:38:43;;;;;;;12.48;4.97;;;;;;;;;;5016753;28;93160;-74
2023/07/10 02:41:09;;;;;;;13.57;5.10;;;;;;;;;;5016847;28;93063;-74
2023/07/10 02:43:35;;;;;;;6.50;4.07;;;;;;;;;;5016386;28;92480;-73
2023/07/10 02:46:02;;;;;;;9.93;3.92;;;;;;;;;;5016431;28;93259;-74
2023/07/10 02:48:29;;;;;;;7.65;4.03;;;;;;;;;;5013277;28;95882;-74
2023/07/10 02:50:55;;;;;;;7.80;3.95;;;;;;;;;;5016178;28;92441;-74
2023/07/10 02:53:22;;;;;;;10.70;4.30;;;;;;;;;;5016121;28;93187;-74
2023/07/10 02:55:48;;;;;;;8.57;3.85;;;;;;;;;;5016568;28;93788;-74
2023/07/10 02:58:15;;;;;;;6.97;4.07;;;;;;;;;;5019312;28;92424;-74
2023/07/10 03:00:41;;;;;;;7.68;3.85;;;;;;;;;;5015382;28;93466;-74
2023/07/10 03:03:07;;;;;;;5.90;3.70;;;;;;;;;;5016243;28;92430;-74
2023/07/10 03:05:34;;;;;;;7.45;3.97;;;;;;;;;;5016518;28;91891;-74
2023/07/10 03:08:00;;;;;;;12.13;4.07;;;;;;;;;;5015994;28;93223;-74
2023/07/10 03:10:27;;;;;;;9.05;4.10;;;;;;;;;;5016116;28;92791;-74
2023/07/10 03:12:53;;;;;;;7.03;3.70;;;;;;;;;;5014465;28;94868;-74
2023/07/10 03:15:21;;;;;;;5.38;3.47;;;;;;;;;;5015751;28;93980;-74
2023/07/10 03:17:48;;;;;;;8.25;4.05;;;;;;;;;;5014686;28;92465;-74
2023/07/10 03:20:14;;;;;;;9.25;4.00;;;;;;;;;;5019005;28;93126;-74
2023/07/10 03:22:41;;;;;;;13.07;3.83;;;;;;;;;;5015724;28;92778;-74
2023/07/10 03:25:07;;;;;;;10.93;4.15;;;;;;;;;;5016052;28;93111;-73
2023/07/10 03:27:34;;;;;;;11.65;4.32;;;;;;;;;;5014797;28;93684;-74
2023/07/10 03:30:00;;;;;;;12.70;5.13;;;;;;;;;;5016306;28;91702;-74
2023/07/10 03:32:26;;;;;;;7.28;4.25;;;;;;;;;;5015407;28;93766;-74
2023/07/10 03:34:53;;;;;;;10.52;4.72;;;;;;;;;;5015513;28;93435;-74
2023/07/10 03:37:19;;;;;;;14.98;5.18;;;;;;;;;;5014025;28;94834;-74
2023/07/10 03:39:45;;;;;;;11.70;4.40;;;;;;;;;;5015149;28;95625;-73
2023/07/10 03:42:12;;;;;;;11.88;4.22;;;;;;;;;;5018312;28;93488;-73
2023/07/10 03:44:38;;;;;;;14.88;4.97;;;;;;;;;;5015677;28;93150;-74
2023/07/10 03:47:05;;;;;;;10.35;4.70;;;;;;;;;;5014930;28;93441;-74
2023/07/10 03:49:32;;;;;;;8.25;4.65;;;;;;;;;;5015228;28;92916;-74
2023/07/10 03:51:58;;;;;;;8.57;4.47;;;;;;;;;;5015234;28;93225;-74
2023/07/10 03:54:25;;;;;;;8.13;3.95;;;;;;;;;;5015572;28;92994;-74
2023/07/10 03:56:51;;;;;;;10.30;4.30;;;;;;;;;;5015119;28;92408;-74
2023/07/10 03:59:18;;;;;;;12.38;4.82;;;;;;;;;;5015331;28;93251;-74
2023/07/10 04:01:44;;;;;;;12.23;4.88;;;;;;;;;;5011906;28;97269;-74
2023/07/10 04:04:11;;;;;;;10.90;4.80;;;;;;;;;;5018239;28;92382;-74
2023/07/10 04:06:37;;;;;;;20.88;4.82;;;;;;;;;;5014854;28;93441;-74
2023/07/10 04:09:03;;;;;;;8.82;4.85;;;;;;;;;;5014991;28;92410;-74
2023/07/10 04:11:30;;;;;;;12.00;4.82;;;;;;;;;;5014926;28;93229;-74
2023/07/10 04:13:56;;;;;;;8.07;4.15;;;;;;;;;;5014712;28;92464;-74
2023/07/10 04:16:24;;;;;;;12.85;4.57;;;;;;;;;;5015235;28;92495;-74
2023/07/10 04:18:52;;;;;;;11.48;4.30;;;;;;;;;;5015201;28;93159;-74
2023/07/10 04:21:21;;;;;;;10.55;4.68;;;;;;;;;;5014200;28;93667;-74
2023/07/10 04:23:48;;;;;;;9.75;4.90;;;;;;;;;;5014766;28;92397;-74
2023/07/10 04:26:18;;;;;;;9.90;3.90;;;;;;;;;;5016190;28;94774;-74
2023/07/10 04:28:46;;;;;;;13.02;4.60;;;;;;;;;;5014544;28;92458;-74
2023/07/10 04:31:12;;;;;;;11.25;4.38;;;;;;;;;;5015068;28;93064;-74
2023/07/10 04:33:39;;;;;;;14.05;4.57;;;;;;;;;;5014483;28;92824;-74
2023/07/10 04:36:05;;;;;;;9.65;4.18;;;;;;;;;;5014685;28;92507;-74
2023/07/10 04:38:32;;;;;;;10.98;4.40;;;;;;;;;;5014745;28;93149;-73
2023/07/10 04:40:59;;;;;;;12.23;4.85;;;;;;;;;;5014316;28;93493;-74
2023/07/10 04:43:27;;;;;;;10.00;4.43;;;;;;;;;;5014396;28;91670;-74
2023/07/10 04:45:54;;;;;;;8.88;4.25;;;;;;;;;;5017232;28;92771;-74
2023/07/10 04:48:22;;;;;;;9.23;4.22;;;;;;;;;;5013108;28;93008;-74
2023/07/10 04:50:49;;;;;;;15.25;4.50;;;;;;;;;;5012992;28;94731;-74
2023/07/10 04:53:16;;;;;;;17.63;4.43;;;;;;;;;;5012701;28;93677;-74
2023/07/10 04:55:43;;;;;;;22.55;4.80;;;;;;;;;;5014102;28;92444;-74
2023/07/10 04:58:10;;;;;;;12.60;4.28;;;;;;;;;;5014303;28;92357;-74
2023/07/10 05:00:37;;;;;;;9.80;3.33;;;;;;;;;;5014264;28;94470;-74
2023/07/10 05:03:04;;;;;;;9.45;3.88;;;;;;;;;;5013990;28;92461;-74
2023/07/10 05:05:30;;;;;;;12.10;3.95;;;;;;;;;;5014117;28;93317;-74
2023/07/10 05:07:56;;;;;;;9.65;3.30;;;;;;;;;;5017468;28;92466;-74
2023/07/10 05:10:23;;;;;;;13.15;4.03;;;;;;;;;;5013990;28;92431;-74
2023/07/10 05:12:49;;;;;;;11.48;3.80;;;;;;;;;;5012469;28;93686;-74
2023/07/10 05:15:16;;;;;;;8.23;3.45;;;;;;;;;;5012495;28;94856;-74
2023/07/10 05:17:43;;;;;;;7.13;3.38;;;;;;;;;;5014411;28;94553;-74
2023/07/10 05:20:10;;;;;;;7.10;3.70;;;;;;;;;;5012715;28;94468;-74
2023/07/10 05:22:36;;;;;;;11.55;3.65;;;;;;;;;;5013883;28;92436;-74
2023/07/10 05:25:03;;;;;;;11.75;4.15;;;;;;;;;;5013913;28;93216;-74
2023/07/10 05:27:29;;;;;;;15.27;3.70;;;;;;;;;;5012982;28;92493;-74
2023/07/10 05:29:56;;;;;;;8.57;3.50;;;;;;;;;;5016967;28;92531;-74
2023/07/10 05:32:22;;;;;;;10.52;3.33;;;;;;;;;;5012819;28;92742;-74
2023/07/10 05:34:48;;;;;;;10.95;3.33;;;;;;;;;;5016568;28;92514;-74
2023/07/10 05:37:15;;;;;;;10.55;2.92;;;;;;;;;;5017336;28;92392;-74
2023/07/10 05:39:41;;;;;;;10.23;3.13;;;;;;;;;;5015009;28;95877;-74
2023/07/10 05:42:07;;;;;;;8.88;3.80;;;;;;;;;;5017120;28;92483;-74
2023/07/10 05:44:34;;;;;;;7.63;3.35;;;;;;;;;;5016101;28;94447;-74
2023/07/10 05:47:01;;;;;;;13.27;3.50;;;;;;;;;;5017255;28;93607;-74
2023/07/10 05:49:27;;;;;;;12.75;3.90;;;;;;;;;;5017241;28;92448;-74
2023/07/10 05:51:53;;;;;;;13.13;3.47;;;;;;;;;;5020120;28;93272;-74
2023/07/10 05:54:20;;;;;;;13.23;3.47;;;;;;;;;;5016998;28;92420;-74
2023/07/10 05:56:46;;;;;;;20.45;3.50;;;;;;;;;;5017549;28;93250;-74
2023/07/10 05:59:13;;;;;;;10.32;3.80;;;;;;;;;;5016677;28;93590;-74
2023/07/10 06:01:40;;;;;;;12.43;3.80;;;;;;;;;;5017185;28;92436;-74
2023/07/10 06:04:06;;;;;;;15.93;4.45;;;;;;;;;;5015307;28;94758;-74
2023/07/10 06:06:33;;;;;;;11.48;3.33;;;;;;;;;;5015464;28;93765;-74
2023/07/10 06:08:59;;;;;;;12.50;3.30;;;;;;;;;;5017020;28;92420;-74
2023/07/10 06:11:26;;;;;;;10.80;3.67;;;;;;;;;;5016767;28;93145;-74
2023/07/10 06:13:52;;;;;;;11.13;3.22;;;;;;;;;;5019683;28;93587;-74
2023/07/10 06:16:19;;;;;;;12.20;3.15;;;;;;;;;;5016969;28;92879;-74
2023/07/10 06:18:45;;;;;;;9.52;3.63;;;;;;;;;;5016627;28;93439;-74
2023/07/10 06:21:11;;;;;;;10.55;3.97;;;;;;;;;;5016600;28;91780;-74
2023/07/10 06:23:38;;;;;;;8.30;2.95;;;;;;;;;;5016926;28;93515;-73
2023/07/10 06:26:04;;;;;;;10.82;3.28;;;;;;;;;;5016368;28;93515;-74
2023/07/10 06:28:34;;;;;;;7.55;3.50;;;;;;;;;;5013788;28;94752;-73
2023/07/10 06:31:05;;;;;;;10.00;3.38;;;;;;;;;;5015550;28;96497;-74
2023/07/10 06:33:32;;;;;;;7.00;2.63;;;;;;;;;;5015212;28;93386;-74
2023/07/10 06:35:58;;;;;;;11.02;3.03;;;;;;;;;;5017942;28;92490;-73
2023/07/10 06:38:25;;;;;;;8.50;2.83;;;;;;;;;;5015293;28;93489;-74
2023/07/10 06:40:51;;;;;;;17.83;3.17;;;;;;;;;;5014459;28;92422;-74
2023/07/10 06:43:18;;;;;;;8.88;2.63;;;;;;;;;;5015301;28;93243;-74
2023/07/10 06:45:45;;;;;;;15.57;2.90;;;;;;;;;;5014887;28;93025;-74
2023/07/10 06:48:12;;;;;;;9.73;2.17;;;;;;;;;;5015027;28;92483;-74
2023/07/10 06:50:38;;;;;;;8.15;1.98;;;;;;;;;;5014302;28;94181;-74
2023/07/10 06:53:05;;;;;;;13.10;2.45;;;;;;;;;;5013619;28;98716;-74
2023/07/10 06:55:56;;;;;;;12.00;2.70;;;;;;;;;;5018083;28;93730;-74
2023/07/10 06:58:22;;;;;;;7.93;2.60;;;;;;;;;;5014647;28;93384;-74
2023/07/10 07:00:49;;;;;;;10.27;2.35;;;;;;;;;;5014761;28;92455;-74
2023/07/10 07:03:15;;;;;;;15.05;2.80;;;;;;;;;;5014899;28;93164;-74
2023/07/10 07:05:42;;;;;;;10.07;2.00;;;;;;;;;;5014701;28;93391;-74
2023/07/10 07:08:09;;;;;;;17.65;2.83;;;;;;;;;;5015089;28;92453;-74
2023/07/10 07:10:38;;;;;;;12.38;2.80;;;;;;;;;;5013865;28;93376;-74
2023/07/10 07:13:04;;;;;;;12.50;2.50;;;;;;;;;;5014463;28;93613;-74
2023/07/10 07:15:31;;;;;;;15.45;2.92;;;;;;;;;;5014264;28;92465;-74
2023/07/10 07:17:57;;;;;;;13.75;3.15;;;;;;;;;;5016407;28;95001;-74
2023/07/10 07:20:24;;;;;;;11.32;2.25;;;;;;;;;;5014542;28;92478;-74
2023/07/10 07:22:50;;;;;;;16.98;2.80;;;;;;;;;;5014495;28;93225;-74
2023/07/10 07:25:18;;;;;;;12.82;2.83;;;;;;;;;;5014347;28;93650;-74
2023/07/10 07:27:44;;;;;;;13.43;2.63;;;;;;;;;;4974026;28;1166623;-74
2023/07/10 07:30:11;;;;;;;11.55;3.20;;;;;;;;;;5015414;28;93508;-75
2023/07/10 07:32:37;;;;;;;9.93;2.65;;;;;;;;;;5014452;28;93551;-74
2023/07/10 07:35:04;;;;;;;12.43;3.08;;;;;;;;;;5015985;28;91676;-74
2023/07/10 07:37:30;;;;;;;15.93;2.70;;;;;;;;;;5014616;28;92558;-74
2023/07/10 07:39:59;;;;;;;11.05;3.00;;;;;;;;;;5018193;28;94167;-74
2023/07/10 07:42:27;;;;;;;8.87;2.53;;;;;;;;;;5012188;28;95303;-74
2023/07/10 07:44:54;;;;;;;18.45;3.08;;;;;;;;;;5015086;28;92404;-74
2023/07/10 07:47:20;;;;;;;13.35;3.08;;;;;;;;;;5015459;28;92490;-74
2023/07/10 07:49:47;;;;;;;13.88;3.42;;;;;;;;;;5014311;28;94273;-75
2023/07/10 07:52:13;;;;;;;9.52;2.78;;;;;;;;;;5015019;28;93579;-74
2023/07/10 07:54:39;;;;;;;12.45;2.97;;;;;;;;;;5015608;28;92472;-74
2023/07/10 07:57:07;;;;;;;11.35;2.97;;;;;;;;;;5014057;28;93247;-74
2023/07/10 07:59:34;;;;;;;19.08;3.30;;;;;;;;;;5015583;28;92749;-74
2023/07/10 08:02:00;;;;;;;9.35;2.05;;;;;;;;;;5018165;28;92620;-74
2023/07/10 08:04:27;;;;;;;14.38;3.13;;;;;;;;;;5015538;28;96175;-74
2023/07/10 08:06:53;;;;;;;19.38;3.05;;;;;;;;;;5013446;28;94812;-74
2023/07/10 08:09:20;;;;;;;15.25;3.70;;;;;;;;;;5015050;28;95679;-74
2023/07/10 08:11:46;;;;;;;8.45;2.47;;;;;;;;;;5014269;28;93489;-74
2023/07/10 08:14:12;;;;;;;7.22;2.47;;;;;;;;;;5015021;28;92604;-74
2023/07/10 08:16:39;;;;;;;9.25;2.58;;;;;;;;;;5015205;28;93168;-74
2023/07/10 08:19:05;;;;;;;14.27;3.05;;;;;;;;;;5014971;28;94409;-74
2023/07/10 08:21:32;;;;;;;14.00;2.75;;;;;;;;;;5014973;28;92972;-74
2023/07/10 08:23:58;;;;;;;11.85;2.95;;;;;;;;;;5018152;28;93261;-74
2023/07/10 08:26:24;;;;;;;13.00;2.85;;;;;;;;;;5013968;28;92652;-74
2023/07/10 08:28:51;;;;;;;17.70;3.30;;;;;;;;;;5014754;28;92834;-74
2023/07/10 08:31:17;;;;;;;18.75;3.40;;;;;;;;;;5012903;28;97001;-74
2023/07/10 08:33:44;;;;;;;10.35;2.53;;;;;;;;;;5014600;28;92788;-74
2023/07/10 08:36:11;;;;;;;15.52;2.78;;;;;;;;;;5014630;28;93523;-74
2023/07/10 08:38:38;;;;;;;11.02;2.67;;;;;;;;;;5012787;28;93480;-74
2023/07/10 08:41:18;;;;;;;10.68;2.60;;;;;;;;;;5014423;28;92475;-74
2023/07/10 08:43:45;;;;;;;11.00;2.65;;;;;;;;;;5017461;28;93318;-74
2023/07/10 08:46:16;;;;;;;10.10;2.45;;;;;;;;;;5014681;28;92490;-74
2023/07/10 08:49:00;;;;;;;10.48;2.63;;;;;;;;;;5014723;28;93178;-74
2023/07/10 08:51:29;;;;;;;12.95;2.40;;;;;;;;;;5014072;28;94003;-75
2023/07/10 08:54:04;;;;;;;9.52;2.50;;;;;;;;;;5014343;28;92382;-74
2023/07/10 08:56:37;;;;;;;12.73;2.40;;;;;;;;;;5012764;28;94796;-74
2023/07/10 08:59:13;;;;;;;12.32;2.83;;;;;;;;;;5014255;28;93447;-74
2023/07/10 09:01:42;;;;;;;12.13;2.85;;;;;;;;;;5013927;28;92507;-74
2023/07/10 09:04:11;;;;;;;10.57;2.30;;;;;;;;;;5014489;28;94254;-74
2023/07/10 09:06:43;;;;;;;18.17;3.53;;;;;;;;;;5017214;28;94297;-74
2023/07/10 09:09:21;;;;;;;20.70;3.33;;;;;;;;;;5014549;28;92926;-74
2023/07/10 09:11:48;;;;;;;17.90;2.78;;;;;;;;;;5014160;28;94939;-74
2023/07/10 09:14:27;;;;;;;13.65;2.45;;;;;;;;;;5014358;28;91840;-74
2023/07/10 09:16:55;;;;;;;5.93;1.75;;;;;;;;;;5012871;28;93419;-74
2023/07/10 09:19:23;;;;;;;12.85;2.83;;;;;;;;;;5013799;28;93412;-74
2023/07/10 09:21:49;;;;;;;9.88;3.22;;;;;;;;;;5012350;28;94833;-74
2023/07/10 09:24:21;;;;;;;15.95;3.17;;;;;;;;;;5013866;28;95520;-74
2023/07/10 09:26:48;;;;;;;11.70;2.42;;;;;;;;;;5013221;28;93742;-74
2023/07/10 09:29:17;;;;;;;13.90;3.05;;;;;;;;;;5017244;28;92548;-74
2023/07/10 09:32:08;;;;;;;11.43;2.55;;;;;;;;;;5013761;28;93793;-74
2023/07/10 09:34:34;;;;;;;15.70;2.65;;;;;;;;;;5013943;28;92438;-74
2023/07/10 09:37:03;;;;;;;17.55;3.17;;;;;;;;;;5013381;28;93251;-74
2023/07/10 09:39:32;;;;;;;15.20;2.38;;;;;;;;;;5014140;28;93036;-74
2023/07/10 09:42:02;;;;;;;9.70;2.25;;;;;;;;;;5013671;28;92551;-75
2023/07/10 09:44:36;;;;;;;13.35;2.17;;;;;;;;;;5013841;28;93734;-74
2023/07/10 09:47:10;;;;;;;14.75;2.58;;;;;;;;;;5012695;28;98741;-74
2023/07/10 09:49:41;;;;;;;11.73;2.70;;;;;;;;;;5013986;28;92733;-74
2023/07/10 09:52:36;;;;;;;10.00;1.95;;;;;;;;;;5016275;28;93684;-75
2023/07/10 09:55:14;;;;;;;7.88;2.03;;;;;;;;;;5007922;28;92502;-74
2023/07/10 09:57:59;;;;;;;12.02;2.45;;;;;;;;;;5013514;28;93683;-74
2023/07/10 10:00:27;;;;;;;10.27;2.33;;;;;;;;;;5006771;28;93582;-74
2023/07/10 10:02:53;;;;;;;27.85;2.95;;;;;;;;;;4993485;28;92421;-74
2023/07/10 10:05:20;;;;;;;10.57;2.55;;;;;;;;;;4994076;28;93459;-74
2023/07/10 10:07:48;;;;;;;12.32;2.42;;;;;;;;;;4993317;28;93987;-74
2023/07/10 10:10:19;;;;;;;10.32;2.28;;;;;;;;;;4992076;28;92485;-74
2023/07/10 10:12:55;;;;;;;6.15;1.75;;;;;;;;;;4994451;28;94832;-74
2023/07/10 10:15:32;;;;;;;16.60;2.05;;;;;;;;;;5016208;28;93948;-74
2023/07/10 10:18:01;;;;;;;10.80;2.45;;;;;;;;;;5013597;28;93714;-74
2023/07/10 10:20:30;;;;;;;17.27;2.35;;;;;;;;;;5015334;28;94556;-74
2023/07/10 10:22:57;;;;;;;11.57;2.58;;;;;;;;;;5016695;28;92726;-74
2023/07/10 10:25:31;;;;;;;9.45;2.33;;;;;;;;;;5016788;28;92399;-74
2023/07/10 10:28:09;;;;;;;6.32;1.80;;;;;;;;;;5016095;28;93478;-74
2023/07/10 10:30:55;;;;;;;7.35;1.55;;;;;;;;;;5017082;28;92091;-74
2023/07/10 10:33:27;;;;;;;8.30;2.20;;;;;;;;;;5016693;28;93316;-74
2023/07/10 10:36:01;;;;;;;11.00;2.28;;;;;;;;;;5015166;28;93781;-74
2023/07/10 10:38:30;;;;;;;8.90;2.20;;;;;;;;;;5018363;28;94820;-74
2023/07/10 10:41:05;;;;;;;8.88;2.35;;;;;;;;;;5014950;28;93664;-74
2023/07/10 10:43:37;;;;;;;11.07;2.20;;;;;;;;;;5016567;28;92437;-74
2023/07/10 10:46:06;;;;;;;8.07;2.03;;;;;;;;;;5015543;28;94519;-74
2023/07/10 10:48:43;;;;;;;7.32;1.70;;;;;;;;;;5016089;28;93073;-74
2023/07/10 10:51:21;;;;;;;5.10;1.38;;;;;;;;;;5016210;28;92445;-74
2023/07/10 10:54:00;;;;;;;10.05;2.25;;;;;;;;;;5016488;28;93312;-74
2023/07/10 10:56:30;;;;;;;8.02;2.00;;;;;;;;;;5016700;28;93643;-74
2023/07/10 10:58:57;;;;;;;;;;;;;;;;;;5018370;28;92455;-74
2023/07/10 11:01:23;;;;;;;11.73;1.90;;;;;;;;;;5016629;28;124150;-74
2023/07/10 11:03:54;;;;;;;12.52;2.25;;;;;;;;;;5014699;28;95300;-74
2023/07/10 11:06:33;;;;;;;15.30;2.20;;;;;;;;;;5016281;28;95963;-74
2023/07/10 11:09:10;;;;;;;13.43;2.38;;;;;;;;;;5015830;28;93278;-74
2023/07/10 11:11:38;;;;;;;11.13;2.38;;;;;;;;;;5016020;28;92455;-74
2023/07/10 11:14:04;;;;;;;9.90;1.77;;;;;;;;;;5015706;28;93407;-74
2023/07/10 11:16:32;;;;;;;9.95;2.00;;;;;;;;;;5015893;28;92466;-74
2023/07/10 11:18:59;;;;;;;12.40;1.75;;;;;;;;;;5014484;28;92820;-74
2023/07/10 11:21:26;;;;;;;12.18;2.42;;;;;;;;;;5018880;28;92040;-74
2023/07/10 11:23:52;;;;;;;10.95;1.98;;;;;;;;;;5015680;28;92456;-74
2023/07/10 11:26:26;;;;;;;11.85;2.22;;;;;;;;;;5015526;28;93251;-74
2023/07/10 11:28:54;;;;;;;16.83;2.60;;;;;;;;;;5013615;28;96364;-74
2023/07/10 11:31:33;;;;;;;7.68;2.15;;;;;;;;;;5013242;28;92579;-74
2023/07/10 11:34:06;;;;;;;10.75;2.05;;;;;;;;;;5015864;28;93100;-74
2023/07/10 11:36:35;;;;;;;10.73;2.30;;;;;;;;;;5015660;28;92382;-74
2023/07/10 11:39:11;;;;;;;9.83;2.53;;;;;;;;;;5015550;28;92434;-74
2023/07/10 11:41:44;;;;;;;13.75;3.28;;;;;;;;;;5014616;28;92427;-74
2023/07/10 11:44:16;;;;;;;8.52;2.05;;;;;;;;;;5017601;28;93619;-73
2023/07/10 11:46:57;;;;;;;16.20;3.05;;;;;;;;;;5016267;28;93133;-74
2023/07/10 11:49:25;;;;;;;8.95;2.10;;;;;;;;;;5014921;28;93425;-74
2023/07/10 11:52:10;;;;;;;14.60;2.58;;;;;;;;;;5015204;28;92521;-74
2023/07/10 11:54:38;;;;;;;9.88;1.85;;;;;;;;;;5013541;28;94984;-74
2023/07/10 11:57:10;;;;;;;9.00;2.05;;;;;;;;;;5015419;28;93681;-74
2023/07/10 11:59:47;;;;;;;8.93;1.90;;;;;;;;;;5015162;28;92409;-74
2023/07/10 12:02:23;;;;;;;13.07;2.03;;;;;;;;;;5015054;28;93356;-74
2023/07/10 12:04:49;;;;;;;12.77;2.47;;;;;;;;;;5014922;28;93216;-74
2023/07/10 12:07:16;;;;;;;7.95;1.92;;;;;;;;;;5017898;28;92665;-74
2023/07/10 12:09:42;;;;;;;11.88;2.15;;;;;;;;;;5015221;28;93914;-74
2023/07/10 12:12:13;;;;;;;11.20;2.50;;;;;;;;;;5015470;28;91713;-74
2023/07/10 12:14:39;;;;;;;13.68;2.33;;;;;;;;;;5015080;28;93556;-74
2023/07/10 12:17:10;;;;;;;11.15;2.20;;;;;;;;;;5014718;28;93396;-74
2023/07/10 12:19:59;;;;;;;11.23;2.60;;;;;;;;;;5013268;28;94849;-74
2023/07/10 12:22:35;;;;;;;10.38;2.13;;;;;;;;;;5014793;28;95752;-74
2023/07/10 12:25:02;;;;;;;10.63;2.50;;;;;;;;;;5013258;28;93612;-74
2023/07/10 12:27:32;;;;;;;15.38;2.47;;;;;;;;;;5014233;28;92526;-74
2023/07/10 12:30:23;;;;;;;9.30;1.95;;;;;;;;;;5016653;28;92812;-74
2023/07/10 12:32:51;;;;;;;11.65;2.10;;;;;;;;;;5014684;28;92473;-74
2023/07/10 12:35:25;;;;;;;10.07;1.88;;;;;;;;;;5014487;28;93126;-74
2023/07/10 12:37:52;;;;;;;6.32;1.88;;;;;;;;;;5014886;28;93437;-74
2023/07/10 12:40:18;;;;;;;16.75;2.97;;;;;;;;;;5014556;28;92967;-74
2023/07/10 12:42:45;;;;;;;9.23;2.30;;;;;;;;;;5014084;28;93215;-74
2023/07/10 12:45:16;;;;;;;8.45;1.90;;;;;;;;;;5012451;28;96064;-74
2023/07/10 12:47:52;;;;;;;9.95;2.10;;;;;;;;;;5015134;28;92432;-74
2023/07/10 12:50:31;;;;;;;9.02;2.63;;;;;;;;;;5013230;28;93191;-74
2023/07/10 12:52:58;;;;;;;10.95;1.90;;;;;;;;;;5017080;28;93716;-74
2023/07/10 12:55:30;;;;;;;10.13;2.08;;;;;;;;;;5014539;28;94070;-74
2023/07/10 12:57:58;;;;;;;8.23;2.10;;;;;;;;;;5014135;28;93450;-74
2023/07/10 13:00:38;;;;;;;10.02;1.98;;;;;;;;;;5014189;28;92538;-74
2023/07/10 13:03:17;;;;;;;7.97;2.38;;;;;;;;;;5015265;28;95496;-75
2023/07/10 13:05:50;;;;;;;11.40;2.00;;;;;;;;;;5013090;28;96564;-74
2023/07/10 13:08:16;;;;;;;11.35;2.40;;;;;;;;;;5014094;28;92466;-74
2023/07/10 13:10:43;;;;;;;6.97;1.95;;;;;;;;;;5012659;28;95003;-74
2023/07/10 13:13:15;;;;;;;12.63;2.45;;;;;;;;;;5017003;28;92522;-74
2023/07/10 13:15:41;;;;;;;12.65;2.22;;;;;;;;;;5014060;28;93222;-74
2023/07/10 13:18:35;;;;;;;10.98;2.30;;;;;;;;;;5014642;28;93203;-74
2023/07/10 13:21:02;;;;;;;7.50;1.63;;;;;;;;;;5012670;28;92648;-75
2023/07/10 13:23:28;;;;;;;7.13;1.40;;;;;;;;;;5014084;28;92470;-74
2023/07/10 13:25:55;;;;;;;8.00;1.83;;;;;;;;;;5013783;28;93866;-74
2023/07/10 13:28:23;;;;;;;5.47;1.80;;;;;;;;;;5013797;28;91809;-74
2023/07/10 13:31:09;;;;;;;6.32;1.38;;;;;;;;;;5013069;28;95339;-74
2023/07/10 13:33:36;;;;;;;8.60;1.92;;;;;;;;;;5013697;28;93852;-74
2023/07/10 13:36:08;;;;;;;8.98;1.77;;;;;;;;;;5015182;28;95246;-74
2023/07/10 13:38:34;;;;;;;7.40;1.65;;;;;;;;;;5013771;28;93615;-74
2023/07/10 13:41:01;;;;;;;9.50;2.03;;;;;;;;;;5013655;28;92529;-74
2023/07/10 13:43:28;;;;;;;10.38;1.80;;;;;;;;;;5013864;28;93456;-74
2023/07/10 13:46:00;;;;;;;11.77;1.85;;;;;;;;;;5013306;28;93843;-74
2023/07/10 13:48:27;;;;;;;7.65;1.80;;;;;;;;;;4992226;28;92563;-74
2023/07/10 13:50:54;;;;;;;7.53;1.42;;;;;;;;;;4993523;28;93298;-74
2023/07/10 13:53:23;;;;;;;7.63;1.75;;;;;;;;;;4993741;28;92710;-74
2023/07/10 13:55:49;;;;;;;6.10;1.83;;;;;;;;;;4996244;28;92429;-74
2023/07/10 13:58:23;;;;;;;9.35;2.20;;;;;;;;;;5000372;28;94554;-74
2023/07/10 14:00:50;;;;;;;7.07;1.92;;;;;;;;;;4995830;28;94824;-74
2023/07/10 14:03:17;;;;;;;5.68;2.10;;;;;;;;;;4997208;28;96953;-74
2023/07/10 14:05:45;;;;;;;7.45;1.75;;;;;;;;;;4996722;28;93516;-75
2023/07/10 14:08:18;;;;;;;8.13;1.80;;;;;;;;;;4996678;28;92458;-74
2023/07/10 14:10:44;;;;;;;9.07;1.98;;;;;;;;;;4997061;28;94357;-74
2023/07/10 14:13:11;;;;;;;9.75;1.77;;;;;;;;;;5002527;28;93505;-75
2023/07/10 14:15:41;;;;;;;8.10;1.67;;;;;;;;;;5017044;28;92439;-74
2023/07/10 14:18:12;;;;;;;10.32;1.98;;;;;;;;;;5017809;28;94214;-74
2023/07/10 14:20:38;;;;;;;10.13;1.98;;;;;;;;;;5019782;28;93456;-75
2023/07/10 14:23:14;;;;;;;7.00;1.48;;;;;;;;;;5016655;28;93079;-74
2023/07/10 14:25:41;;;;;;;8.00;2.08;;;;;;;;;;5014782;28;96007;-74
2023/07/10 14:28:16;;;;;;;2.97;1.23;;;;;;;;;;5016138;28;92462;-74
2023/07/10 14:30:42;;;;;;;8.52;1.80;;;;;;;;;;5016247;28;92946;-74
2023/07/10 14:33:10;;;;;;;5.40;1.85;;;;;;;;;;5016454;28;93434;-74
2023/07/10 14:35:37;;;;;;;6.00;1.80;;;;;;;;;;5016303;28;92395;-75
2023/07/10 14:38:16;;;;;;;8.88;1.77;;;;;;;;;;5016672;28;93589;-74
2023/07/10 14:40:43;;;;;;;10.43;2.25;;;;;;;;;;5016414;28;93501;-74
2023/07/10 14:43:09;;;;;;;10.68;2.08;;;;;;;;;;5020069;28;91900;-74
2023/07/10 14:45:36;;;;;;;8.48;2.10;;;;;;;;;;5015823;28;93438;-74